createdAt,value
2019-05-03T00:02:58.765Z,82.93
2019-05-03T00:05:47.660Z,83.52
2019-05-03T00:08:33.791Z,82.89
2019-05-03T00:11:21.915Z,83.71
2019-05-03T00:14:07.821Z,84.01
2019-05-03T00:16:54.106Z,84.14
2019-05-03T00:19:42.079Z,83.56
2019-05-03T00:22:28.345Z,83.63
2019-05-03T00:25:14.700Z,83.15
2019-05-03T00:28:01.859Z,83.33
2019-05-03T00:30:48.255Z,83.10
2019-05-03T00:33:36.231Z,82.81
2019-05-03T00:36:32.827Z,82.93
2019-05-03T00:39:27.110Z,82.72
2019-05-03T00:42:13.091Z,82.47
2019-05-03T00:44:59.341Z,82.66
2019-05-03T00:47:45.364Z,83.04
2019-05-03T00:50:32.063Z,82.29
2019-05-03T00:53:18.040Z,81.85
2019-05-03T00:56:04.294Z,82.47
2019-05-03T00:58:57.046Z,83.17
2019-05-03T01:01:43.120Z,82.60
2019-05-03T01:04:29.214Z,82.50
2019-05-03T01:07:15.344Z,82.23
2019-05-03T01:10:02.696Z,82.26
2019-05-03T01:12:49.256Z,82.23
2019-05-03T01:15:42.575Z,82.96
2019-05-03T01:18:28.550Z,82.86
2019-05-03T01:21:14.573Z,83.24
2019-05-03T01:24:01.679Z,83.39
2019-05-03T01:26:47.763Z,82.28
2019-05-03T01:29:33.780Z,84.50
2019-05-03T01:32:19.906Z,85.69
2019-05-03T01:35:06.126Z,86.41
2019-05-03T01:37:52.176Z,87.09
2019-05-03T01:40:38.290Z,86.82
2019-05-03T01:43:24.559Z,86.99
2019-05-03T01:46:12.001Z,87.07
2019-05-03T01:49:12.287Z,86.68
2019-05-03T01:52:10.274Z,87.31
2019-05-03T01:54:56.130Z,87.11
2019-05-03T01:57:42.449Z,86.44
2019-05-03T02:00:31.789Z,86.86
2019-05-03T02:03:27.746Z,86.56
2019-05-03T02:06:14.363Z,86.76
2019-05-03T02:09:01.603Z,86.97
2019-05-03T02:11:48.005Z,86.86
2019-05-03T02:14:34.350Z,87.04
2019-05-03T02:17:22.555Z,86.87
2019-05-03T02:20:08.631Z,86.74
2019-05-03T02:22:54.960Z,85.86
2019-05-03T02:25:41.915Z,86.20
2019-05-03T02:28:28.426Z,85.20
2019-05-03T02:31:14.705Z,85.22
2019-05-03T02:34:03.261Z,85.59
2019-05-03T02:36:49.146Z,85.43
2019-05-03T02:39:35.250Z,85.22
2019-05-03T02:42:21.537Z,85.04
2019-05-03T02:45:10.570Z,85.72
2019-05-03T02:48:06.026Z,84.54
2019-05-03T02:50:52.545Z,84.28
2019-05-03T02:53:38.829Z,84.03
2019-05-03T02:56:26.048Z,83.44
2019-05-03T02:59:15.456Z,83.54
2019-05-03T03:02:00.178Z,83.76
2019-05-03T03:04:46.216Z,83.46
2019-05-03T03:07:32.427Z,83.63
2019-05-03T03:10:18.820Z,83.60
2019-05-03T03:13:06.068Z,83.27
2019-05-03T03:15:55.212Z,83.62
2019-05-03T03:18:40.816Z,83.66
2019-05-03T03:21:30.068Z,83.94
2019-05-03T03:24:18.984Z,84.72
2019-05-03T03:27:06.329Z,84.46
2019-05-03T03:30:07.948Z,83.97
2019-05-03T03:32:57.825Z,84.02
2019-05-03T03:35:48.433Z,83.93
2019-05-03T03:38:35.335Z,83.63
2019-05-03T03:41:21.186Z,83.29
2019-05-03T03:44:07.447Z,83.20
2019-05-03T03:46:56.201Z,83.54
2019-05-03T03:49:42.786Z,82.87
2019-05-03T03:52:31.650Z,83.24
2019-05-03T03:55:17.466Z,82.69
2019-05-03T03:58:06.489Z,83.16
2019-05-03T04:00:52.333Z,83.13
2019-05-03T04:03:38.741Z,83.09
2019-05-03T04:06:39.845Z,83.53
2019-05-03T04:09:26.919Z,83.19
2019-05-03T04:12:12.860Z,83.66
2019-05-03T04:15:21.545Z,83.88
2019-05-03T04:18:26.032Z,83.52
2019-05-03T04:21:12.516Z,82.40
2019-05-03T04:23:58.888Z,82.62
2019-05-03T04:26:45.407Z,82.71
2019-05-03T04:29:31.793Z,83.17
2019-05-03T04:32:18.225Z,82.82
2019-05-03T04:35:05.359Z,82.27
2019-05-03T04:37:51.965Z,82.13
2019-05-03T04:40:38.159Z,82.17
2019-05-03T04:43:26.395Z,82.54
2019-05-03T04:46:19.825Z,82.21
2019-05-03T04:49:05.912Z,81.95
2019-05-03T04:51:51.958Z,80.99
2019-05-03T04:55:06.343Z,80.47
2019-05-03T04:57:51.578Z,80.88
2019-05-03T05:00:37.625Z,79.73
2019-05-03T05:03:23.797Z,79.79
2019-05-03T05:06:10.652Z,78.93
2019-05-03T05:08:56.834Z,77.52
2019-05-03T05:11:45.557Z,75.69
2019-05-03T05:14:31.191Z,73.03
2019-05-03T05:17:26.362Z,70.17
2019-05-03T05:20:24.811Z,67.78
2019-05-03T05:23:11.085Z,64.50
2019-05-03T05:26:05.555Z,62.34
2019-05-03T05:28:55.699Z,59.77
2019-05-03T05:31:41.930Z,62.29
2019-05-03T05:34:28.231Z,61.45
2019-05-03T05:37:14.596Z,60.24
2019-05-03T05:40:00.985Z,58.99
2019-05-03T05:42:47.105Z,58.25
2019-05-03T05:45:34.822Z,57.60
2019-05-03T05:48:30.523Z,58.11
2019-05-03T05:51:16.782Z,56.63
2019-05-03T05:54:05.115Z,53.97
2019-05-03T05:57:05.159Z,57.33
2019-05-03T05:59:56.945Z,55.12
2019-05-03T06:02:44.724Z,55.59
2019-05-03T06:05:30.972Z,54.97
2019-05-03T06:08:35.334Z,53.47
2019-05-03T06:11:45.065Z,52.92
2019-05-03T06:14:40.348Z,50.57
2019-05-03T06:17:34.844Z,51.41
2019-05-03T06:20:31.016Z,49.31
2019-05-03T06:23:24.975Z,50.22
2019-05-03T06:26:29.603Z,50.30
2019-05-03T06:29:16.017Z,49.33
2019-05-03T06:32:21.456Z,49.29
2019-05-03T06:35:07.938Z,48.04
2019-05-03T06:37:54.659Z,49.06
2019-05-03T06:40:41.355Z,50.61
2019-05-03T06:43:27.478Z,50.93
2019-05-03T06:46:16.434Z,51.09
2019-05-03T06:49:08.602Z,53.39
2019-05-03T06:51:50.286Z,52.56
2019-05-03T06:54:37.905Z,55.37
2019-05-03T06:57:25.352Z,57.31
2019-05-03T07:00:31.875Z,57.71
2019-05-03T07:03:37.240Z,56.95
2019-05-03T07:06:45.935Z,52.12
2019-05-03T07:09:57.675Z,50.62
2019-05-03T07:13:00.824Z,46.09
2019-05-03T07:15:47.116Z,45.20
2019-05-03T07:18:34.991Z,46.83
2019-05-03T07:21:21.436Z,45.29
2019-05-03T07:24:07.684Z,44.46
2019-05-03T07:26:55.083Z,48.86
2019-05-03T07:29:41.900Z,48.96
2019-05-03T07:32:31.319Z,50.65
2019-05-03T07:35:16.886Z,50.38
2019-05-03T07:38:05.342Z,48.46
2019-05-03T07:40:51.904Z,45.57
2019-05-03T07:43:38.323Z,45.62
2019-05-03T07:46:24.705Z,44.84
2019-05-03T07:49:11.356Z,45.13
2019-05-03T07:51:57.455Z,43.79
2019-05-03T07:54:45.174Z,46.45
2019-05-03T07:57:40.857Z,47.63
2019-05-03T08:00:27.195Z,48.17
2019-05-03T08:03:15.308Z,50.36
2019-05-03T08:06:01.463Z,50.96
2019-05-03T08:08:47.503Z,52.63
2019-05-03T08:11:35.210Z,51.13
2019-05-03T08:14:21.776Z,48.63
2019-05-03T08:17:07.883Z,47.09
2019-05-03T08:19:55.150Z,45.51
2019-05-03T08:22:41.623Z,44.51
2019-05-03T08:25:27.643Z,42.21
2019-05-03T08:28:14.649Z,42.97
2019-05-03T08:31:20.557Z,43.62
2019-05-03T08:34:38.249Z,44.68
2019-05-03T08:37:28.059Z,45.10
2019-05-03T08:40:15.565Z,48.06
2019-05-03T08:43:01.924Z,50.39
2019-05-03T08:45:48.136Z,50.25
2019-05-03T08:48:35.503Z,50.54
2019-05-03T08:51:21.855Z,48.68
2019-05-03T08:54:08.035Z,50.14
2019-05-03T08:56:55.709Z,48.12
2019-05-03T08:59:44.504Z,43.55
2019-05-03T09:02:30.555Z,42.48
2019-05-03T09:05:18.613Z,43.26
2019-05-03T09:08:05.767Z,43.38
2019-05-03T09:11:06.916Z,44.65
2019-05-03T09:13:58.615Z,46.26
2019-05-03T09:16:44.895Z,48.40
2019-05-03T09:19:31.596Z,46.34
2019-05-03T09:22:17.495Z,46.13
2019-05-03T09:25:04.958Z,43.91
2019-05-03T09:27:51.557Z,44.07
2019-05-03T09:30:37.875Z,43.97
2019-05-03T09:33:24.949Z,45.65
2019-05-03T09:36:11.938Z,45.21
2019-05-03T09:38:57.938Z,45.47
2019-05-03T09:41:45.039Z,44.64
2019-05-03T09:44:31.496Z,44.93
2019-05-03T09:47:17.535Z,47.25
2019-05-03T09:50:04.778Z,48.73
2019-05-03T09:52:51.677Z,49.03
2019-05-03T09:55:40.036Z,47.89
2019-05-03T09:58:26.514Z,48.86
2019-05-03T10:01:15.852Z,48.52
2019-05-03T10:04:02.616Z,48.05
2019-05-03T10:06:48.902Z,48.68
2019-05-03T10:09:35.491Z,48.32
2019-05-03T10:12:25.488Z,48.79
2019-05-03T10:15:12.080Z,48.98
2019-05-03T10:17:59.883Z,49.21
2019-05-03T10:20:46.323Z,48.91
2019-05-03T10:23:41.416Z,49.28
2019-05-03T10:26:27.735Z,48.71
2019-05-03T10:29:15.267Z,48.50
2019-05-03T10:32:07.656Z,48.24
2019-05-03T10:34:55.681Z,46.25
2019-05-03T10:37:42.016Z,45.82
2019-05-03T10:40:28.282Z,45.05
2019-05-03T10:43:14.335Z,44.84
2019-05-03T10:46:00.622Z,46.44
2019-05-03T10:48:47.286Z,47.89
2019-05-03T10:51:38.255Z,47.78
2019-05-03T10:54:24.417Z,46.17
2019-05-03T10:57:15.972Z,42.58
2019-05-03T11:00:04.956Z,42.02
2019-05-03T11:02:58.917Z,39.83
2019-05-03T11:05:45.557Z,40.73
2019-05-03T11:08:31.555Z,41.58
2019-05-03T11:11:17.675Z,42.72
2019-05-03T11:14:05.390Z,44.03
2019-05-03T11:16:52.097Z,44.04
2019-05-03T11:19:38.238Z,44.88
2019-05-03T11:22:25.213Z,44.56
2019-05-03T11:25:11.615Z,44.52
2019-05-03T11:27:58.737Z,44.70
2019-05-03T11:30:53.154Z,43.70
2019-05-03T11:33:39.025Z,41.49
2019-05-03T11:36:36.615Z,42.42
2019-05-03T11:39:22.675Z,44.08
2019-05-03T11:42:08.855Z,45.17
2019-05-03T11:44:54.917Z,45.99
2019-05-03T11:47:41.335Z,46.69
2019-05-03T11:50:27.763Z,45.59
2019-05-03T11:53:14.562Z,44.98
2019-05-03T11:56:01.095Z,43.62
2019-05-03T11:58:47.177Z,43.05
2019-05-03T12:01:42.103Z,41.89
2019-05-03T12:04:28.276Z,43.08
2019-05-03T12:07:18.509Z,43.94
2019-05-03T12:10:16.873Z,44.08
2019-05-03T12:12:59.956Z,42.87
2019-05-03T12:15:46.216Z,43.06
2019-05-03T12:18:47.780Z,45.85
2019-05-03T12:21:21.933Z,45.46
2019-05-03T12:24:09.774Z,46.35
2019-05-03T12:26:56.115Z,45.90
2019-05-03T12:29:42.255Z,46.00
2019-05-03T12:32:28.515Z,45.94
2019-05-03T12:35:15.362Z,44.59
2019-05-03T12:38:01.996Z,44.78
2019-05-03T12:40:48.177Z,44.81
2019-05-03T12:43:34.436Z,44.41
2019-05-03T12:46:20.655Z,42.84
2019-05-03T12:49:07.058Z,43.24
2019-05-03T12:51:53.255Z,44.25
2019-05-03T12:54:39.435Z,45.24
2019-05-03T12:57:25.515Z,43.71
2019-05-03T13:00:40.098Z,43.61
2019-05-03T13:03:35.595Z,43.70
2019-05-03T13:06:22.099Z,43.92
2019-05-03T13:09:08.776Z,43.18
2019-05-03T13:11:59.154Z,42.37
2019-05-03T13:14:45.417Z,40.88
2019-05-03T13:17:35.695Z,40.90
2019-05-03T13:20:22.323Z,41.58
2019-05-03T13:23:08.555Z,41.71
2019-05-03T13:25:54.803Z,41.60
2019-05-03T13:28:41.284Z,41.87
2019-05-03T13:31:27.524Z,42.68
2019-05-03T13:34:15.568Z,42.56
2019-05-03T13:37:01.786Z,42.08
2019-05-03T13:39:47.916Z,42.91
2019-05-03T13:42:35.014Z,42.24
2019-05-03T13:45:21.700Z,42.48
2019-05-03T13:48:07.781Z,40.82
2019-05-03T13:50:55.181Z,40.67
2019-05-03T13:53:41.980Z,40.71
2019-05-03T13:56:28.200Z,41.57
2019-05-03T13:59:21.385Z,41.45
2019-05-03T14:02:14.476Z,41.37
2019-05-03T14:04:52.869Z,40.81
2019-05-03T14:07:38.970Z,41.53
2019-05-03T14:10:25.320Z,41.12
2019-05-03T14:13:11.370Z,41.89
2019-05-03T14:15:57.581Z,41.49
2019-05-03T14:18:46.458Z,41.81
2019-05-03T14:21:43.403Z,41.75
2019-05-03T14:24:29.577Z,42.21
2019-05-03T14:27:17.189Z,41.28
2019-05-03T14:30:05.435Z,41.91
2019-05-03T14:32:52.698Z,42.50
2019-05-03T14:35:39.200Z,41.94
2019-05-03T14:38:25.568Z,42.42
2019-05-03T14:41:11.826Z,43.05
2019-05-03T14:44:00.667Z,43.05
2019-05-03T14:46:46.890Z,43.31
2019-05-03T14:49:34.585Z,42.76
2019-05-03T14:52:20.686Z,43.48
2019-05-03T14:55:14.737Z,43.85
2019-05-03T14:58:14.767Z,44.56
2019-05-03T15:01:08.212Z,43.17
2019-05-03T15:03:55.052Z,44.58
2019-05-03T15:06:41.503Z,44.61
2019-05-03T15:09:27.457Z,44.39
2019-05-03T15:12:13.417Z,45.59
2019-05-03T15:14:59.661Z,44.63
2019-05-03T15:17:45.923Z,44.54
2019-05-03T15:20:31.976Z,45.01
2019-05-03T15:23:18.081Z,44.92
2019-05-03T15:26:05.132Z,45.31
2019-05-03T15:28:51.211Z,45.91
2019-05-03T15:31:37.477Z,45.64
2019-05-03T15:34:23.596Z,46.55
2019-05-03T15:37:09.852Z,46.25
2019-05-03T15:39:56.131Z,45.76
2019-05-03T15:42:48.066Z,46.33
2019-05-03T15:45:54.622Z,46.99
2019-05-03T15:48:45.786Z,47.86
2019-05-03T15:51:32.121Z,48.40
2019-05-03T15:54:18.321Z,48.69
2019-05-03T15:57:05.087Z,48.92
2019-05-03T15:59:51.406Z,49.20
2019-05-03T16:02:37.496Z,49.45
2019-05-03T16:05:25.068Z,49.50
2019-05-03T16:08:11.751Z,49.78
2019-05-03T16:10:57.925Z,50.05
2019-05-03T16:13:44.861Z,50.23
2019-05-03T16:16:31.101Z,50.19
2019-05-03T16:19:17.211Z,50.62
2019-05-03T16:22:04.872Z,50.47
2019-05-03T16:24:51.051Z,50.30
2019-05-03T16:27:56.796Z,50.46
2019-05-03T16:30:48.372Z,50.11
2019-05-03T16:33:35.020Z,49.07
2019-05-03T16:36:20.951Z,47.94
2019-05-03T16:39:07.686Z,48.16
2019-05-03T16:41:55.304Z,48.00
2019-05-03T16:44:41.266Z,48.16
2019-05-03T16:47:27.556Z,48.18
2019-05-03T16:50:14.437Z,48.74
2019-05-03T16:53:00.895Z,48.96
2019-05-03T16:55:47.026Z,49.05
2019-05-03T16:58:35.214Z,48.52
2019-05-03T17:01:21.281Z,48.10
2019-05-03T17:04:42.151Z,48.28
2019-05-03T17:07:35.375Z,47.95
2019-05-03T17:10:34.891Z,47.47
2019-05-03T17:13:21.157Z,46.99
2019-05-03T17:16:09.854Z,47.55
2019-05-03T17:18:59.292Z,47.23
2019-05-03T17:21:45.701Z,47.34
2019-05-03T17:24:31.856Z,48.32
2019-05-03T17:27:19.249Z,48.31
2019-05-03T17:30:15.869Z,48.61
2019-05-03T17:33:04.613Z,48.87
2019-05-03T17:35:51.061Z,49.51
2019-05-03T17:38:37.201Z,49.37
2019-05-03T17:41:41.816Z,49.69
2019-05-03T17:44:37.180Z,49.68
2019-05-03T17:47:23.201Z,50.11
2019-05-03T17:50:09.626Z,50.61
2019-05-03T17:53:11.526Z,50.61
2019-05-03T17:56:17.713Z,50.92
2019-05-03T17:59:10.591Z,51.00
2019-05-03T18:02:32.187Z,51.47
2019-05-03T18:05:50.949Z,51.42
2019-05-03T18:09:10.720Z,51.43
2019-05-03T18:11:58.136Z,52.16
2019-05-03T18:14:45.056Z,52.34
2019-05-03T18:17:32.816Z,52.52
2019-05-03T18:20:18.847Z,52.65
2019-05-03T18:23:05.186Z,53.20
2019-05-03T18:25:51.136Z,53.21
2019-05-03T18:28:39.641Z,53.22
2019-05-03T18:31:25.918Z,53.62
2019-05-03T18:34:18.967Z,53.98
2019-05-03T18:37:00.461Z,54.19
2019-05-03T18:39:49.951Z,54.61
2019-05-03T18:42:44.811Z,54.74
2019-05-03T18:45:59.866Z,54.96
2019-05-03T18:48:46.170Z,55.04
2019-05-03T18:51:34.257Z,55.13
2019-05-03T18:54:20.486Z,55.65
2019-05-03T18:57:06.847Z,55.52
2019-05-03T18:59:55.462Z,56.38
2019-05-03T19:02:41.859Z,56.52
2019-05-03T19:05:30.504Z,56.32
2019-05-03T19:08:42.016Z,56.33
2019-05-03T19:11:54.915Z,56.42
2019-05-03T19:14:41.545Z,56.48
2019-05-03T19:17:35.562Z,56.74
2019-05-03T19:20:22.211Z,56.45
2019-05-03T19:23:08.361Z,56.90
2019-05-03T19:25:55.255Z,56.94
2019-05-03T19:28:42.002Z,57.13
2019-05-03T19:31:28.287Z,57.00
2019-05-03T19:34:15.456Z,57.08
2019-05-03T19:37:01.681Z,57.40
2019-05-03T19:39:47.931Z,57.69
2019-05-03T19:42:35.387Z,57.56
2019-05-03T19:45:21.881Z,57.51
2019-05-03T19:48:09.691Z,57.53
2019-05-03T19:50:56.212Z,57.62
2019-05-03T19:53:49.691Z,57.81
2019-05-03T19:56:35.670Z,57.59
2019-05-03T19:59:41.602Z,57.86
2019-05-03T20:02:54.452Z,58.03
2019-05-03T20:06:00.681Z,58.22
2019-05-03T20:08:52.256Z,58.50
2019-05-03T20:11:38.436Z,58.43
2019-05-03T20:14:26.877Z,58.51
2019-05-03T20:17:16.201Z,58.65
2019-05-03T20:20:04.787Z,58.98
2019-05-03T20:22:54.970Z,59.07
2019-05-03T20:25:41.263Z,59.12
2019-05-03T20:28:27.147Z,59.38
2019-05-03T20:31:18.221Z,59.43
2019-05-03T20:34:09.366Z,59.60
2019-05-03T20:40:26.826Z,60.00
2019-05-03T20:43:35.207Z,59.99
2019-05-03T20:46:31.958Z,60.17
2019-05-03T20:49:18.451Z,60.44
2019-05-03T20:52:05.642Z,60.74
2019-05-03T20:54:55.087Z,61.11
2019-05-03T20:57:41.716Z,61.75
2019-05-03T21:00:27.971Z,62.33
2019-05-03T21:03:15.280Z,63.07
2019-05-03T21:06:02.466Z,63.31
2019-05-03T21:08:56.706Z,63.61
2019-05-03T21:11:48.501Z,63.62
2019-05-03T21:14:35.166Z,64.45
2019-05-03T21:17:34.565Z,64.73
2019-05-03T21:20:39.422Z,65.68
2019-05-03T21:23:26.627Z,65.72
2019-05-03T21:26:16.677Z,65.56
2019-05-03T21:29:04.721Z,65.86
2019-05-03T21:31:55.128Z,66.62
2019-05-03T21:34:40.972Z,66.62
2019-05-03T21:37:27.417Z,66.14
2019-05-03T21:40:15.488Z,67.08
2019-05-03T21:43:01.792Z,67.03
2019-05-03T21:45:54.398Z,67.38
2019-05-03T21:48:50.466Z,67.59
2019-05-03T21:51:36.788Z,68.62
2019-05-03T21:54:28.356Z,68.08
2019-05-03T21:57:16.628Z,68.43
2019-05-03T22:00:05.498Z,68.41
2019-05-03T22:02:51.905Z,68.72
2019-05-03T22:05:51.789Z,69.23
2019-05-03T22:08:26.356Z,69.18
2019-05-03T22:11:12.296Z,70.05
2019-05-03T22:14:01.690Z,69.91
2019-05-03T22:17:07.326Z,70.08
2019-05-03T22:20:00.251Z,69.89
2019-05-03T22:22:55.419Z,70.11
2019-05-03T22:25:42.420Z,70.90
2019-05-03T22:28:28.836Z,70.83
2019-05-03T22:31:15.359Z,70.63
2019-05-03T22:34:01.410Z,71.05
2019-05-03T22:36:47.563Z,71.36
2019-05-03T22:39:35.776Z,71.94
2019-05-03T22:42:25.343Z,71.60
2019-05-03T22:45:13.311Z,70.52
2019-05-03T22:47:59.831Z,69.26
2019-05-03T22:50:46.030Z,69.65
2019-05-03T22:57:46.271Z,70.32
2019-05-03T23:13:20.970Z,73.49
2019-05-03T23:25:26.876Z,74.70
2019-05-03T23:28:24.941Z,75.47
2019-05-03T23:31:14.747Z,77.02
2019-05-03T23:34:08.074Z,76.85
2019-05-03T23:36:58.506Z,77.49
2019-05-03T23:39:50.963Z,77.98
2019-05-03T23:42:46.936Z,78.68
2019-05-03T23:45:34.773Z,78.55
2019-05-03T23:48:25.610Z,79.27
2019-05-03T23:51:30.896Z,79.69
2019-05-03T23:54:26.735Z,79.40
2019-05-03T23:57:14.436Z,79.72
